sensor_id;sensor_type;location;lat;lon;timestamp;pressure;altitude;pressure_sealevel;temperature;humidity
47430;BME280;33181;49.246;7.372;2023-05-09T00:01:34;99066.66;;;16.64;100.00
47430;BME280;33181;49.246;7.372;2023-05-09T00:04:00;99064.81;;;16.57;100.00
47430;BME280;33181;49.246;7.372;2023-05-09T00:06:26;99051.03;;;16.53;100.00
47430;BME280;33181;49.246;7.372;2023-05-09T00:08:53;99055.81;;;16.50;100.00
47430;BME280;33181;49.246;7.372;2023-05-09T00:11:20;99056.13;;;16.47;100.00
47430;BME280;33181;49.246;7.372;2023-05-09T00:13:49;99049.00;;;16.29;100.00
47430;BME280;33181;49.246;7.372;2023-05-09T00:16:16;99042.94;;;16.19;100.00
47430;BME280;33181;49.246;7.372;2023-05-09T00:18:42;99041.91;;;16.12;100.00
47430;BME280;33181;49.246;7.372;2023-05-09T00:21:09;99031.97;;;16.14;100.00
47430;BME280;33181;49.246;7.372;2023-05-09T00:23:37;99028.03;;;16.18;100.00
47430;BME280;33181;49.246;7.372;2023-05-09T00:26:03;99022.56;;;16.19;100.00
47430;BME280;33181;49.246;7.372;2023-05-09T00:28:28;99025.91;;;16.21;100.00
47430;BME280;33181;49.246;7.372;2023-05-09T00:30:57;99016.84;;;16.24;100.00
47430;BME280;33181;49.246;7.372;2023-05-09T00:33:23;99024.63;;;16.26;100.00
47430;BME280;33181;49.246;7.372;2023-05-09T00:35:53;99021.81;;;16.27;100.00
47430;BME280;33181;49.246;7.372;2023-05-09T00:38:19;99016.84;;;16.24;100.00
47430;BME280;33181;49.246;7.372;2023-05-09T00:40:44;99018.31;;;16.27;100.00
47430;BME280;33181;49.246;7.372;2023-05-09T00:43:10;99013.34;;;16.24;100.00
47430;BME280;33181;49.246;7.372;2023-05-09T00:45:36;99014.63;;;16.19;100.00
47430;BME280;33181;49.246;7.372;2023-05-09T00:48:02;99017.28;;;16.19;100.00
47430;BME280;33181;49.246;7.372;2023-05-09T00:50:29;99016.97;;;16.22;100.00
47430;BME280;33181;49.246;7.372;2023-05-09T00:52:55;99012.34;;;16.25;100.00
47430;BME280;33181;49.246;7.372;2023-05-09T00:55:21;99010.84;;;16.22;100.00
47430;BME280;33181;49.246;7.372;2023-05-09T00:57:47;99008.06;;;16.24;100.00
47430;BME280;33181;49.246;7.372;2023-05-09T01:00:14;99005.84;;;16.19;100.00
47430;BME280;33181;49.246;7.372;2023-05-09T01:02:43;99007.59;;;16.10;100.00
47430;BME280;33181;49.246;7.372;2023-05-09T01:05:10;99006.25;;;16.06;100.00
47430;BME280;33181;49.246;7.372;2023-05-09T01:16:18;99013.13;;;15.99;100.00
47430;BME280;33181;49.246;7.372;2023-05-09T01:19:29;99019.03;;;15.93;100.00
47430;BME280;33181;49.246;7.372;2023-05-09T01:21:58;99014.19;;;15.88;100.00
47430;BME280;33181;49.246;7.372;2023-05-09T01:27:27;99009.66;;;15.81;100.00
47430;BME280;33181;49.246;7.372;2023-05-09T01:29:59;99006.00;;;15.82;100.00
47430;BME280;33181;49.246;7.372;2023-05-09T01:32:28;99004.56;;;15.87;100.00
47430;BME280;33181;49.246;7.372;2023-05-09T01:34:59;98998.44;;;15.87;100.00
47430;BME280;33181;49.246;7.372;2023-05-09T01:37:35;99002.41;;;15.83;100.00
47430;BME280;33181;49.246;7.372;2023-05-09T01:40:14;98979.50;;;15.64;100.00
47430;BME280;33181;49.246;7.372;2023-05-09T01:43:05;98982.72;;;15.67;100.00
47430;BME280;33181;49.246;7.372;2023-05-09T01:45:33;98981.81;;;15.77;100.00
47430;BME280;33181;49.246;7.372;2023-05-09T01:48:01;98990.94;;;15.82;100.00
47430;BME280;33181;49.246;7.372;2023-05-09T01:50:28;98980.22;;;15.84;100.00
47430;BME280;33181;49.246;7.372;2023-05-09T01:52:56;98974.44;;;15.88;100.00
47430;BME280;33181;49.246;7.372;2023-05-09T01:55:29;98981.94;;;15.93;100.00
47430;BME280;33181;49.246;7.372;2023-05-09T01:57:58;98968.69;;;15.93;100.00
47430;BME280;33181;49.246;7.372;2023-05-09T02:00:24;98965.06;;;15.94;100.00
47430;BME280;33181;49.246;7.372;2023-05-09T02:02:54;98972.25;;;15.84;100.00
47430;BME280;33181;49.246;7.372;2023-05-09T02:05:26;98970.34;;;15.76;100.00
47430;BME280;33181;49.246;7.372;2023-05-09T02:07:54;98969.91;;;15.81;100.00
47430;BME280;33181;49.246;7.372;2023-05-09T02:10:23;98971.13;;;15.68;100.00
47430;BME280;33181;49.246;7.372;2023-05-09T02:12:53;98966.09;;;15.65;100.00
47430;BME280;33181;49.246;7.372;2023-05-09T02:15:20;98971.56;;;15.64;100.00
47430;BME280;33181;49.246;7.372;2023-05-09T02:17:46;98968.06;;;15.63;100.00
47430;BME280;33181;49.246;7.372;2023-05-09T02:20:12;98962.34;;;15.68;100.00
47430;BME280;33181;49.246;7.372;2023-05-09T02:22:40;98961.34;;;15.69;100.00
47430;BME280;33181;49.246;7.372;2023-05-09T02:25:08;98961.88;;;15.72;100.00
47430;BME280;33181;49.246;7.372;2023-05-09T02:27:37;98966.56;;;15.79;100.00
47430;BME280;33181;49.246;7.372;2023-05-09T02:30:08;98970.53;;;15.74;100.00
47430;BME280;33181;49.246;7.372;2023-05-09T02:32:38;98971.00;;;15.60;100.00
47430;BME280;33181;49.246;7.372;2023-05-09T02:35:07;98966.00;;;15.57;100.00
47430;BME280;33181;49.246;7.372;2023-05-09T02:37:34;98966.22;;;15.46;100.00
47430;BME280;33181;49.246;7.372;2023-05-09T02:40:01;98963.00;;;15.52;100.00
47430;BME280;33181;49.246;7.372;2023-05-09T02:42:28;98954.75;;;15.55;100.00
47430;BME280;33181;49.246;7.372;2023-05-09T02:44:55;98951.09;;;15.56;100.00
47430;BME280;33181;49.246;7.372;2023-05-09T02:47:21;98941.22;;;15.58;100.00
47430;BME280;33181;49.246;7.372;2023-05-09T02:49:47;98946.63;;;15.57;100.00
47430;BME280;33181;49.246;7.372;2023-05-09T02:52:13;98939.38;;;15.59;100.00
47430;BME280;33181;49.246;7.372;2023-05-09T02:54:40;98952.47;;;15.60;100.00
47430;BME280;33181;49.246;7.372;2023-05-09T02:57:05;98945.28;;;15.52;100.00
47430;BME280;33181;49.246;7.372;2023-05-09T02:59:32;98946.94;;;15.53;100.00
47430;BME280;33181;49.246;7.372;2023-05-09T03:01:57;98950.81;;;15.59;100.00
47430;BME280;33181;49.246;7.372;2023-05-09T03:04:23;98938.84;;;15.37;100.00
47430;BME280;33181;49.246;7.372;2023-05-09T03:06:50;98943.31;;;15.37;100.00
47430;BME280;33181;49.246;7.372;2023-05-09T03:09:16;98945.34;;;15.43;100.00
47430;BME280;33181;49.246;7.372;2023-05-09T03:11:42;98941.41;;;15.47;100.00
47430;BME280;33181;49.246;7.372;2023-05-09T03:14:08;98952.38;;;15.34;100.00
47430;BME280;33181;49.246;7.372;2023-05-09T03:16:35;98945.94;;;15.37;100.00
47430;BME280;33181;49.246;7.372;2023-05-09T03:19:02;98944.06;;;15.47;100.00
47430;BME280;33181;49.246;7.372;2023-05-09T03:21:28;98942.09;;;15.49;100.00
47430;BME280;33181;49.246;7.372;2023-05-09T03:23:54;98943.41;;;15.45;100.00
47430;BME280;33181;49.246;7.372;2023-05-09T03:26:20;98940.97;;;15.51;100.00
47430;BME280;33181;49.246;7.372;2023-05-09T03:28:46;98934.91;;;15.59;100.00
47430;BME280;33181;49.246;7.372;2023-05-09T03:31:14;98936.56;;;15.60;100.00
47430;BME280;33181;49.246;7.372;2023-05-09T03:33:40;98936.28;;;15.63;100.00
47430;BME280;33181;49.246;7.372;2023-05-09T03:36:06;98940.75;;;15.63;100.00
47430;BME280;33181;49.246;7.372;2023-05-09T03:38:32;98930.56;;;15.68;100.00
47430;BME280;33181;49.246;7.372;2023-05-09T03:40:57;98933.25;;;15.58;100.00
47430;BME280;33181;49.246;7.372;2023-05-09T03:43:23;98928.28;;;15.55;100.00
47430;BME280;33181;49.246;7.372;2023-05-09T03:45:49;98927.88;;;15.50;100.00
47430;BME280;33181;49.246;7.372;2023-05-09T03:48:15;98936.59;;;15.42;100.00
47430;BME280;33181;49.246;7.372;2023-05-09T03:50:41;98934.91;;;15.41;100.00
47430;BME280;33181;49.246;7.372;2023-05-09T03:53:07;98933.94;;;15.42;100.00
47430;BME280;33181;49.246;7.372;2023-05-09T03:55:33;98941.88;;;15.42;100.00
47430;BME280;33181;49.246;7.372;2023-05-09T03:57:58;98933.63;;;15.45;100.00
47430;BME280;33181;49.246;7.372;2023-05-09T04:00:24;98930.31;;;15.43;100.00
47430;BME280;33181;49.246;7.372;2023-05-09T04:02:51;98932.25;;;15.41;100.00
47430;BME280;33181;49.246;7.372;2023-05-09T04:05:18;98938.09;;;15.45;100.00
47430;BME280;33181;49.246;7.372;2023-05-09T04:07:44;98937.00;;;15.38;100.00
47430;BME280;33181;49.246;7.372;2023-05-09T04:10:10;98937.00;;;15.38;100.00
47430;BME280;33181;49.246;7.372;2023-05-09T04:12:36;98925.31;;;15.40;100.00
47430;BME280;33181;49.246;7.372;2023-05-09T04:15:06;98918.72;;;15.44;100.00
47430;BME280;33181;49.246;7.372;2023-05-09T04:17:32;98919.09;;;15.49;100.00
47430;BME280;33181;49.246;7.372;2023-05-09T04:19:58;98918.63;;;15.54;100.00
47430;BME280;33181;49.246;7.372;2023-05-09T04:22:24;98924.72;;;15.64;100.00
47430;BME280;33181;49.246;7.372;2023-05-09T04:24:50;98920.81;;;15.68;100.00
47430;BME280;33181;49.246;7.372;2023-05-09T04:27:16;98917.84;;;15.71;100.00
47430;BME280;33181;49.246;7.372;2023-05-09T04:29:42;98919.16;;;15.67;100.00
47430;BME280;33181;49.246;7.372;2023-05-09T04:32:08;98914.56;;;15.60;100.00
47430;BME280;33181;49.246;7.372;2023-05-09T04:34:33;98913.28;;;15.46;100.00
47430;BME280;33181;49.246;7.372;2023-05-09T04:36:59;98913.19;;;15.38;100.00
47430;BME280;33181;49.246;7.372;2023-05-09T04:39:26;98916.13;;;15.35;100.00
47430;BME280;33181;49.246;7.372;2023-05-09T04:41:52;98912.59;;;15.26;100.00
47430;BME280;33181;49.246;7.372;2023-05-09T04:44:18;98904.50;;;15.27;100.00
47430;BME280;33181;49.246;7.372;2023-05-09T04:46:44;98905.41;;;15.36;100.00
47430;BME280;33181;49.246;7.372;2023-05-09T04:49:09;98901.34;;;15.42;100.00
47430;BME280;33181;49.246;7.372;2023-05-09T04:51:35;98911.47;;;15.46;100.00
47430;BME280;33181;49.246;7.372;2023-05-09T04:54:01;98903.16;;;15.59;100.00
47430;BME280;33181;49.246;7.372;2023-05-09T04:56:26;98907.13;;;15.63;100.00
47430;BME280;33181;49.246;7.372;2023-05-09T04:58:52;98915.66;;;15.67;100.00
47430;BME280;33181;49.246;7.372;2023-05-09T05:01:18;98908.44;;;15.59;100.00
47430;BME280;33181;49.246;7.372;2023-05-09T05:03:44;98904.91;;;15.68;100.00
47430;BME280;33181;49.246;7.372;2023-05-09T05:06:10;98904.38;;;15.83;100.00
47430;BME280;33181;49.246;7.372;2023-05-09T05:08:37;98901.25;;;15.87;100.00
47430;BME280;33181;49.246;7.372;2023-05-09T05:11:03;98899.59;;;15.86;100.00
47430;BME280;33181;49.246;7.372;2023-05-09T05:13:28;98899.09;;;15.83;100.00
47430;BME280;33181;49.246;7.372;2023-05-09T05:15:54;98893.63;;;15.84;100.00
47430;BME280;33181;49.246;7.372;2023-05-09T05:18:21;98891.50;;;15.88;100.00
47430;BME280;33181;49.246;7.372;2023-05-09T05:20:47;98901.13;;;15.71;100.00
47430;BME280;33181;49.246;7.372;2023-05-09T05:23:12;98905.09;;;15.67;100.00
47430;BME280;33181;49.246;7.372;2023-05-09T05:25:38;98903.25;;;15.67;100.00
47430;BME280;33181;49.246;7.372;2023-05-09T05:28:04;98909.59;;;15.74;100.00
47430;BME280;33181;49.246;7.372;2023-05-09T05:30:30;98900.31;;;15.70;100.00
47430;BME280;33181;49.246;7.372;2023-05-09T05:32:56;98901.13;;;15.71;100.00
47430;BME280;33181;49.246;7.372;2023-05-09T05:35:23;98896.75;;;15.80;100.00
47430;BME280;33181;49.246;7.372;2023-05-09T05:37:49;98893.09;;;15.81;100.00
47430;BME280;33181;49.246;7.372;2023-05-09T05:40:15;98881.06;;;15.86;100.00
47430;BME280;33181;49.246;7.372;2023-05-09T05:42:41;98878.00;;;15.99;100.00
47430;BME280;33181;49.246;7.372;2023-05-09T05:45:09;98885.78;;;16.01;100.00
47430;BME280;33181;49.246;7.372;2023-05-09T05:47:36;98876.06;;;16.09;100.00
47430;BME280;33181;49.246;7.372;2023-05-09T05:50:04;98876.38;;;16.32;100.00
47430;BME280;33181;49.246;7.372;2023-05-09T05:52:31;98874.97;;;16.46;100.00
47430;BME280;33181;49.246;7.372;2023-05-09T05:54:58;98879.72;;;16.68;100.00
47430;BME280;33181;49.246;7.372;2023-05-09T05:57:24;98874.00;;;16.89;100.00
47430;BME280;33181;49.246;7.372;2023-05-09T05:59:50;98867.41;;;17.02;100.00
47430;BME280;33181;49.246;7.372;2023-05-09T06:02:17;98872.41;;;17.13;99.40
47430;BME280;33181;49.246;7.372;2023-05-09T06:04:43;98864.81;;;17.18;98.12
47430;BME280;33181;49.246;7.372;2023-05-09T06:07:12;98857.19;;;17.31;97.66
47430;BME280;33181;49.246;7.372;2023-05-09T06:09:41;98855.88;;;17.44;95.89
47430;BME280;33181;49.246;7.372;2023-05-09T06:12:07;98863.19;;;17.58;96.22
47430;BME280;33181;49.246;7.372;2023-05-09T06:14:33;98860.69;;;17.73;95.35
47430;BME280;33181;49.246;7.372;2023-05-09T06:16:59;98846.25;;;17.92;94.26
47430;BME280;33181;49.246;7.372;2023-05-09T06:19:25;98847.41;;;17.89;91.32
47430;BME280;33181;49.246;7.372;2023-05-09T06:21:50;98841.44;;;17.95;91.49
47430;BME280;33181;49.246;7.372;2023-05-09T06:24:16;98843.59;;;17.92;89.53
47430;BME280;33181;49.246;7.372;2023-05-09T06:26:42;98844.44;;;17.84;90.28
47430;BME280;33181;49.246;7.372;2023-05-09T06:29:08;98845.56;;;17.73;90.42
47430;BME280;33181;49.246;7.372;2023-05-09T06:31:35;98842.09;;;17.65;90.31
47430;BME280;33181;49.246;7.372;2023-05-09T06:34:03;98836.94;;;17.71;90.59
47430;BME280;33181;49.246;7.372;2023-05-09T06:36:30;98836.16;;;17.79;90.07
47430;BME280;33181;49.246;7.372;2023-05-09T06:38:57;98838.75;;;17.71;89.56
47430;BME280;33181;49.246;7.372;2023-05-09T06:41:23;98838.44;;;17.57;89.69
47430;BME280;33181;49.246;7.372;2023-05-09T06:43:49;98836.63;;;17.82;89.47
47430;BME280;33181;49.246;7.372;2023-05-09T06:46:15;98831.97;;;17.93;87.90
47430;BME280;33181;49.246;7.372;2023-05-09T06:48:41;98826.13;;;18.14;86.21
47430;BME280;33181;49.246;7.372;2023-05-09T06:51:07;98819.38;;;18.42;85.75
47430;BME280;33181;49.246;7.372;2023-05-09T06:53:33;98818.88;;;18.86;84.96
47430;BME280;33181;49.246;7.372;2023-05-09T06:55:59;98819.06;;;19.31;81.29
47430;BME280;33181;49.246;7.372;2023-05-09T06:58:25;98818.53;;;19.35;79.90
47430;BME280;33181;49.246;7.372;2023-05-09T07:00:52;98813.63;;;19.24;78.47
47430;BME280;33181;49.246;7.372;2023-05-09T07:03:19;98808.56;;;19.52;78.06
47430;BME280;33181;49.246;7.372;2023-05-09T07:05:44;98810.09;;;19.70;76.87
47430;BME280;33181;49.246;7.372;2023-05-09T07:08:10;98811.16;;;19.83;75.58
47430;BME280;33181;49.246;7.372;2023-05-09T07:10:37;98807.53;;;19.76;75.56
47430;BME280;33181;49.246;7.372;2023-05-09T07:13:04;98808.41;;;19.77;75.80
47430;BME280;33181;49.246;7.372;2023-05-09T07:15:29;98800.41;;;19.91;76.33
47430;BME280;33181;49.246;7.372;2023-05-09T07:17:55;98802.72;;;19.80;77.57
47430;BME280;33181;49.246;7.372;2023-05-09T07:20:22;98798.09;;;19.51;75.20
47430;BME280;33181;49.246;7.372;2023-05-09T07:22:49;98786.53;;;19.58;77.48
47430;BME280;33181;49.246;7.372;2023-05-09T07:25:15;98789.06;;;19.75;75.71
47430;BME280;33181;49.246;7.372;2023-05-09T07:27:41;98786.22;;;19.76;74.42
47430;BME280;33181;49.246;7.372;2023-05-09T07:30:07;98786.13;;;19.70;73.84
47430;BME280;33181;49.246;7.372;2023-05-09T07:32:34;98782.03;;;19.59;73.89
47430;BME280;33181;49.246;7.372;2023-05-09T07:35:00;98779.63;;;19.26;74.88
47430;BME280;33181;49.246;7.372;2023-05-09T07:37:26;98773.59;;;19.55;74.42
47430;BME280;33181;49.246;7.372;2023-05-09T07:39:52;98768.16;;;19.86;75.19
47430;BME280;33181;49.246;7.372;2023-05-09T07:42:18;98767.22;;;20.09;74.09
47430;BME280;33181;49.246;7.372;2023-05-09T07:44:44;98767.31;;;20.30;71.51
47430;BME280;33181;49.246;7.372;2023-05-09T07:47:10;98761.31;;;20.43;70.57
47430;BME280;33181;49.246;7.372;2023-05-09T07:49:36;98767.59;;;20.06;70.92
47430;BME280;33181;49.246;7.372;2023-05-09T07:52:02;98762.63;;;19.88;71.98
47430;BME280;33181;49.246;7.372;2023-05-09T07:54:28;98753.59;;;19.74;71.35
47430;BME280;33181;49.246;7.372;2023-05-09T07:56:53;98744.69;;;19.82;71.25
47430;BME280;33181;49.246;7.372;2023-05-09T07:59:19;98740.28;;;20.19;71.51
47430;BME280;33181;49.246;7.372;2023-05-09T08:01:45;98746.50;;;20.26;69.47
47430;BME280;33181;49.246;7.372;2023-05-09T08:04:11;98744.28;;;20.29;70.79
47430;BME280;33181;49.246;7.372;2023-05-09T08:06:37;98745.63;;;19.74;70.93
47430;BME280;33181;49.246;7.372;2023-05-09T08:09:03;98744.81;;;18.90;73.34
47430;BME280;33181;49.246;7.372;2023-05-09T08:11:32;98733.22;;;18.83;74.60
47430;BME280;33181;49.246;7.372;2023-05-09T08:14:00;98730.00;;;18.87;74.55
47430;BME280;33181;49.246;7.372;2023-05-09T08:16:27;98735.44;;;18.94;73.76
47430;BME280;33181;49.246;7.372;2023-05-09T08:18:52;98728.38;;;18.86;74.28
47430;BME280;33181;49.246;7.372;2023-05-09T08:21:20;98727.78;;;18.76;74.64
47430;BME280;33181;49.246;7.372;2023-05-09T08:23:46;98718.88;;;19.07;75.00
47430;BME280;33181;49.246;7.372;2023-05-09T08:26:12;98724.56;;;19.27;74.43
47430;BME280;33181;49.246;7.372;2023-05-09T08:28:38;98723.25;;;19.22;73.27
47430;BME280;33181;49.246;7.372;2023-05-09T08:31:04;98712.31;;;19.32;72.63
47430;BME280;33181;49.246;7.372;2023-05-09T08:33:30;98715.22;;;19.45;72.52
47430;BME280;33181;49.246;7.372;2023-05-09T08:35:56;98712.31;;;19.70;73.98
47430;BME280;33181;49.246;7.372;2023-05-09T08:38:22;98708.38;;;19.96;72.69
47430;BME280;33181;49.246;7.372;2023-05-09T08:40:48;98707.28;;;20.41;72.43
47430;BME280;33181;49.246;7.372;2023-05-09T08:43:16;98704.78;;;20.54;71.00
47430;BME280;33181;49.246;7.372;2023-05-09T08:45:49;98699.97;;;20.65;68.99
47430;BME280;33181;49.246;7.372;2023-05-09T08:48:16;98694.06;;;20.69;68.10
47430;BME280;33181;49.246;7.372;2023-05-09T08:50:43;98697.63;;;20.55;67.98
47430;BME280;33181;49.246;7.372;2023-05-09T08:53:10;98690.84;;;20.52;69.01
47430;BME280;33181;49.246;7.372;2023-05-09T08:55:37;98691.44;;;20.40;69.37
47430;BME280;33181;49.246;7.372;2023-05-09T08:58:03;98690.13;;;20.14;70.38
47430;BME280;33181;49.246;7.372;2023-05-09T09:00:30;98677.66;;;20.36;70.39
47430;BME280;33181;49.246;7.372;2023-05-09T09:03:01;98680.59;;;20.77;71.36
47430;BME280;33181;49.246;7.372;2023-05-09T09:05:33;98672.75;;;21.19;68.33
47430;BME280;33181;49.246;7.372;2023-05-09T09:08:01;98677.63;;;21.37;65.44
47430;BME280;33181;49.246;7.372;2023-05-09T09:10:31;98664.97;;;21.24;66.70
47430;BME280;33181;49.246;7.372;2023-05-09T09:12:59;98674.06;;;21.29;63.81
47430;BME280;33181;49.246;7.372;2023-05-09T09:15:29;98662.50;;;21.22;64.75
47430;BME280;33181;49.246;7.372;2023-05-09T09:17:59;98662.22;;;20.89;64.26
47430;BME280;33181;49.246;7.372;2023-05-09T09:20:33;98664.31;;;20.94;65.35
47430;BME280;33181;49.246;7.372;2023-05-09T09:23:03;98652.50;;;20.81;64.71
47430;BME280;33181;49.246;7.372;2023-05-09T09:25:32;98651.31;;;21.12;65.39
47430;BME280;33181;49.246;7.372;2023-05-09T09:27:58;98640.53;;;20.99;64.44
47430;BME280;33181;49.246;7.372;2023-05-09T09:30:24;98632.72;;;20.97;64.66
47430;BME280;33181;49.246;7.372;2023-05-09T09:32:51;98634.69;;;20.89;64.10
47430;BME280;33181;49.246;7.372;2023-05-09T09:35:19;98629.63;;;21.22;65.32
47430;BME280;33181;49.246;7.372;2023-05-09T09:37:56;98623.84;;;21.53;65.17
47430;BME280;33181;49.246;7.372;2023-05-09T09:40:26;98619.88;;;21.77;63.58
47430;BME280;33181;49.246;7.372;2023-05-09T09:42:55;98624.94;;;21.65;63.10
47430;BME280;33181;49.246;7.372;2023-05-09T09:45:22;98610.88;;;21.85;63.88
47430;BME280;33181;49.246;7.372;2023-05-09T09:47:48;98601.69;;;22.14;63.09
47430;BME280;33181;49.246;7.372;2023-05-09T09:50:18;98596.19;;;22.29;62.95
47430;BME280;33181;49.246;7.372;2023-05-09T09:52:51;98592.78;;;21.93;60.41
47430;BME280;33181;49.246;7.372;2023-05-09T09:55:19;98592.50;;;21.75;60.46
47430;BME280;33181;49.246;7.372;2023-05-09T09:57:45;98587.91;;;21.62;61.40
47430;BME280;33181;49.246;7.372;2023-05-09T10:00:14;98583.59;;;21.61;61.53
47430;BME280;33181;49.246;7.372;2023-05-09T10:03:13;98582.38;;;21.29;61.03
47430;BME280;33181;49.246;7.372;2023-05-09T10:05:41;98572.47;;;20.88;59.22
47430;BME280;33181;49.246;7.372;2023-05-09T10:08:06;98582.91;;;20.19;62.87
47430;BME280;33181;49.246;7.372;2023-05-09T10:10:35;98577.91;;;20.30;63.43
47430;BME280;33181;49.246;7.372;2023-05-09T10:13:07;98574.91;;;19.82;65.11
47430;BME280;33181;49.246;7.372;2023-05-09T10:15:35;98570.97;;;20.14;65.12
47430;BME280;33181;49.246;7.372;2023-05-09T10:18:04;98567.50;;;20.21;65.77
47430;BME280;33181;49.246;7.372;2023-05-09T10:20:33;98562.94;;;20.36;65.23
47430;BME280;33181;49.246;7.372;2023-05-09T10:23:03;98558.44;;;20.58;64.60
47430;BME280;33181;49.246;7.372;2023-05-09T10:28:11;98555.22;;;20.91;62.53
47430;BME280;33181;49.246;7.372;2023-05-09T10:34:05;98546.00;;;21.63;62.89
47430;BME280;33181;49.246;7.372;2023-05-09T10:36:23;98541.34;;;21.91;63.13
47430;BME280;33181;49.246;7.372;2023-05-09T10:38:53;98532.81;;;22.23;59.73
47430;BME280;33181;49.246;7.372;2023-05-09T10:41:20;98530.94;;;22.36;58.42
47430;BME280;33181;49.246;7.372;2023-05-09T10:43:50;98529.09;;;22.37;57.35
47430;BME280;33181;49.246;7.372;2023-05-09T10:46:17;98525.13;;;22.13;57.40
47430;BME280;33181;49.246;7.372;2023-05-09T10:48:43;98524.78;;;22.36;58.52
47430;BME280;33181;49.246;7.372;2023-05-09T10:51:10;98515.53;;;22.52;58.70
47430;BME280;33181;49.246;7.372;2023-05-09T10:53:40;98507.41;;;22.91;58.54
47430;BME280;33181;49.246;7.372;2023-05-09T10:56:39;98506.00;;;22.76;57.18
47430;BME280;33181;49.246;7.372;2023-05-09T10:59:04;98495.72;;;22.59;57.42
47430;BME280;33181;49.246;7.372;2023-05-09T11:01:36;98493.88;;;22.60;58.00
47430;BME280;33181;49.246;7.372;2023-05-09T11:04:11;98486.84;;;22.79;58.56
47430;BME280;33181;49.246;7.372;2023-05-09T11:06:49;98480.66;;;22.98;57.32
47430;BME280;33181;49.246;7.372;2023-05-09T11:09:36;98471.94;;;23.16;56.47
47430;BME280;33181;49.246;7.372;2023-05-09T11:14:48;98466.81;;;23.01;54.76
47430;BME280;33181;49.246;7.372;2023-05-09T11:22:18;98455.28;;;23.14;55.67
47430;BME280;33181;49.246;7.372;2023-05-09T11:24:50;98450.56;;;23.03;55.02
47430;BME280;33181;49.246;7.372;2023-05-09T11:27:22;98448.25;;;23.13;55.67
47430;BME280;33181;49.246;7.372;2023-05-09T11:29:55;98435.13;;;22.98;57.54
47430;BME280;33181;49.246;7.372;2023-05-09T11:32:28;98434.28;;;23.49;55.85
47430;BME280;33181;49.246;7.372;2023-05-09T11:35:15;98435.94;;;23.44;55.09
47430;BME280;33181;49.246;7.372;2023-05-09T11:37:59;98426.84;;;23.45;53.89
47430;BME280;33181;49.246;7.372;2023-05-09T11:40:27;98418.59;;;23.53;53.50
47430;BME280;33181;49.246;7.372;2023-05-09T11:42:55;98415.31;;;23.06;55.89
47430;BME280;33181;49.246;7.372;2023-05-09T11:45:31;98403.88;;;23.30;56.91
47430;BME280;33181;49.246;7.372;2023-05-09T11:47:58;98408.13;;;23.38;54.46
47430;BME280;33181;49.246;7.372;2023-05-09T11:50:28;98401.69;;;23.52;56.60
47430;BME280;33181;49.246;7.372;2023-05-09T11:53:04;98403.88;;;23.69;54.38
47430;BME280;33181;49.246;7.372;2023-05-09T11:55:37;98393.34;;;23.60;54.38
47430;BME280;33181;49.246;7.372;2023-05-09T11:58:06;98382.44;;;23.62;53.56
47430;BME280;33181;49.246;7.372;2023-05-09T12:00:32;98382.81;;;23.34;54.75
47430;BME280;33181;49.246;7.372;2023-05-09T12:02:58;98378.34;;;23.53;56.44
47430;BME280;33181;49.246;7.372;2023-05-09T12:05:24;98381.91;;;23.78;55.28
47430;BME280;33181;49.246;7.372;2023-05-09T12:07:50;98375.38;;;23.36;54.41
47430;BME280;33181;49.246;7.372;2023-05-09T12:10:22;98373.94;;;22.95;56.25
47430;BME280;33181;49.246;7.372;2023-05-09T12:12:52;98357.25;;;23.31;56.84
47430;BME280;33181;49.246;7.372;2023-05-09T12:15:20;98363.09;;;23.53;54.66
47430;BME280;33181;49.246;7.372;2023-05-09T12:17:47;98355.72;;;23.49;54.31
47430;BME280;33181;49.246;7.372;2023-05-09T12:20:25;98359.84;;;23.45;54.22
47430;BME280;33181;49.246;7.372;2023-05-09T12:22:54;98353.84;;;23.49;54.07
47430;BME280;33181;49.246;7.372;2023-05-09T12:25:21;98357.84;;;23.65;55.55
47430;BME280;33181;49.246;7.372;2023-05-09T12:27:47;98348.06;;;23.52;54.37
47430;BME280;33181;49.246;7.372;2023-05-09T12:30:13;98342.66;;;23.27;54.00
47430;BME280;33181;49.246;7.372;2023-05-09T12:32:40;98340.53;;;22.98;55.96
47430;BME280;33181;49.246;7.372;2023-05-09T12:35:08;98324.94;;;23.20;56.07
47430;BME280;33181;49.246;7.372;2023-05-09T12:37:35;98323.84;;;23.34;55.81
47430;BME280;33181;49.246;7.372;2023-05-09T12:40:10;98325.41;;;23.42;53.48
47430;BME280;33181;49.246;7.372;2023-05-09T12:42:38;98312.88;;;23.35;53.35
47430;BME280;33181;49.246;7.372;2023-05-09T12:45:07;98309.28;;;23.48;53.15
47430;BME280;33181;49.246;7.372;2023-05-09T12:47:34;98309.69;;;23.52;53.77
47430;BME280;33181;49.246;7.372;2023-05-09T12:50:05;98303.63;;;23.88;53.95
47430;BME280;33181;49.246;7.372;2023-05-09T12:52:37;98301.50;;;23.97;52.83
47430;BME280;33181;49.246;7.372;2023-05-09T12:55:11;98301.56;;;23.90;51.30
47430;BME280;33181;49.246;7.372;2023-05-09T12:57:38;98297.44;;;23.88;53.14
47430;BME280;33181;49.246;7.372;2023-05-09T13:00:07;98297.28;;;23.82;51.82
47430;BME280;33181;49.246;7.372;2023-05-09T13:02:39;98292.25;;;23.68;52.82
47430;BME280;33181;49.246;7.372;2023-05-09T13:05:07;98293.34;;;23.85;53.96
47430;BME280;33181;49.246;7.372;2023-05-09T13:07:56;98299.09;;;23.00;54.95
47430;BME280;33181;49.246;7.372;2023-05-09T13:10:26;98295.72;;;22.66;55.84
47430;BME280;33181;49.246;7.372;2023-05-09T13:12:53;98289.50;;;22.79;55.05
47430;BME280;33181;49.246;7.372;2023-05-09T13:15:21;98284.88;;;23.00;54.68
47430;BME280;33181;49.246;7.372;2023-05-09T13:17:52;98280.00;;;23.22;55.34
47430;BME280;33181;49.246;7.372;2023-05-09T13:20:19;98274.06;;;23.13;54.62
47430;BME280;33181;49.246;7.372;2023-05-09T13:22:46;98271.47;;;23.00;55.54
47430;BME280;33181;49.246;7.372;2023-05-09T13:25:12;98263.69;;;23.23;55.22